Glassville, Canada
Current Conditions -  °F | °C
As of 6:53 PM on Monday 22 Dec 2014 (Local Time) from KHUL Reporting Station
Overcast Overcast  
Wind Chill: 29°   Ceiling: 4100
Heat Index: 29°   Visibility: 10mi
Dew Point: 24°   Wind: 0mph
Humidity: 82%   Direction: NA
Pressure: 30.41"   Gusts: NA
Location:  46.48°N, 67.42°W
Report Text: KHUL 222253Z AUTO 00000KT 10SM OVC041 M02/M04 A3041 RMK AO2 SLP305 T10171044
Loading
Personal Weather Stations






























Interactive Weather Map New forecast layout! Learn more

10-Day Weather Forecast

Advertisements
Track Severe Weather on mobile